createdAt,value
2018-08-19T00:00:27.780Z,13.60
2018-08-19T00:02:58.982Z,13.60
2018-08-19T00:05:27.365Z,13.70
2018-08-19T00:07:55.913Z,13.70
2018-08-19T00:10:39.292Z,13.60
2018-08-19T00:13:09.087Z,13.60
2018-08-19T00:15:38.277Z,13.50
2018-08-19T00:18:07.789Z,13.40
2018-08-19T00:20:36.186Z,13.40
2018-08-19T00:23:04.758Z,13.30
2018-08-19T00:25:35.596Z,13.30
2018-08-19T00:28:07.397Z,13.30
2018-08-19T00:30:35.803Z,13.40
2018-08-19T00:33:04.530Z,13.30
2018-08-19T00:35:33.213Z,13.30
2018-08-19T00:38:01.890Z,13.30
2018-08-19T00:40:30.265Z,13.30
2018-08-19T00:42:59.049Z,13.40
2018-08-19T00:45:27.643Z,13.50
2018-08-19T00:47:55.981Z,13.60
2018-08-19T00:50:25.345Z,13.70
2018-08-19T00:52:54.374Z,13.80
2018-08-19T00:55:23.000Z,13.60
2018-08-19T00:57:59.365Z,13.50
2018-08-19T01:00:29.077Z,13.40
2018-08-19T01:02:57.461Z,13.30
2018-08-19T01:05:25.809Z,13.20
2018-08-19T01:07:54.183Z,13.10
2018-08-19T01:10:22.552Z,13.00
2018-08-19T01:12:50.889Z,13.00
2018-08-19T01:15:19.266Z,12.90
2018-08-19T01:17:47.626Z,12.90
2018-08-19T01:20:20.440Z,13.00
2018-08-19T01:22:48.882Z,12.90
2018-08-19T01:25:17.382Z,13.00
2018-08-19T01:27:45.911Z,13.10
2018-08-19T01:30:20.573Z,13.00
2018-08-19T01:32:49.044Z,12.90
2018-08-19T01:35:17.850Z,12.90
2018-08-19T01:37:46.202Z,12.90
2018-08-19T01:40:17.779Z,12.80
2018-08-19T01:42:46.642Z,12.80
2018-08-19T01:45:15.013Z,13.00
2018-08-19T01:47:43.337Z,13.10
2018-08-19T01:50:14.209Z,13.20
2018-08-19T01:52:43.329Z,13.30
2018-08-19T01:55:11.734Z,13.30
2018-08-19T01:57:45.564Z,13.30
2018-08-19T02:00:14.739Z,13.10
2018-08-19T02:02:55.889Z,12.90
2018-08-19T02:05:24.700Z,12.70
2018-08-19T02:07:55.517Z,12.60
2018-08-19T02:10:24.338Z,12.50
2018-08-19T02:12:54.213Z,12.50
2018-08-19T02:15:23.748Z,12.40
2018-08-19T02:18:09.749Z,12.50
2018-08-19T02:20:41.288Z,12.60
2018-08-19T02:23:11.000Z,12.50
2018-08-19T02:25:41.583Z,12.50
2018-08-19T02:28:10.813Z,12.50
2018-08-19T02:31:01.852Z,12.60
2018-08-19T02:33:32.465Z,12.70
2018-08-19T02:36:02.990Z,12.60
2018-08-19T02:38:31.549Z,12.70
2018-08-19T02:40:59.941Z,12.60
2018-08-19T02:43:28.306Z,12.70
2018-08-19T02:45:56.667Z,12.70
2018-08-19T02:48:40.746Z,12.70
2018-08-19T02:51:10.266Z,12.60
2018-08-19T02:53:38.636Z,12.70
2018-08-19T02:56:07.029Z,12.70
2018-08-19T02:58:36.299Z,12.60
2018-08-19T03:01:05.372Z,12.40
2018-08-19T03:03:33.761Z,12.40
2018-08-19T03:06:02.598Z,12.60
2018-08-19T03:08:32.586Z,12.50
2018-08-19T03:11:00.993Z,12.20
2018-08-19T03:13:29.349Z,12.00
2018-08-19T03:15:57.777Z,12.00
2018-08-19T03:18:26.241Z,11.90
2018-08-19T03:20:54.626Z,11.90
2018-08-19T03:23:22.974Z,11.80
2018-08-19T03:25:51.328Z,11.80
2018-08-19T03:28:19.681Z,11.70
2018-08-19T03:30:57.262Z,11.70
2018-08-19T03:33:25.581Z,11.50
2018-08-19T03:35:53.886Z,11.40
2018-08-19T03:38:24.811Z,11.50
2018-08-19T03:40:53.997Z,11.40
2018-08-19T03:43:22.914Z,11.40
2018-08-19T03:45:51.227Z,11.40
2018-08-19T03:48:19.585Z,11.40
2018-08-19T03:50:47.893Z,11.30
2018-08-19T03:53:16.233Z,11.40
2018-08-19T03:55:44.569Z,11.60
2018-08-19T03:58:12.921Z,11.80
2018-08-19T04:00:44.284Z,12.00
2018-08-19T04:03:19.109Z,12.00
2018-08-19T04:05:55.706Z,12.10
2018-08-19T04:08:33.277Z,12.20
2018-08-19T04:11:04.293Z,12.20
2018-08-19T04:13:35.182Z,12.10
2018-08-19T04:16:04.537Z,11.70
2018-08-19T04:18:37.577Z,11.50
2018-08-19T04:21:08.082Z,11.40
2018-08-19T04:23:36.832Z,11.30
2018-08-19T04:26:05.558Z,11.30
2018-08-19T04:28:36.613Z,11.30
2018-08-19T04:31:36.461Z,11.30
2018-08-19T04:34:04.806Z,11.30
2018-08-19T04:36:33.154Z,11.40
2018-08-19T04:39:01.515Z,11.40
2018-08-19T04:41:29.833Z,11.50
2018-08-19T04:43:58.221Z,11.80
2018-08-19T04:46:26.576Z,11.80
2018-08-19T04:48:54.929Z,11.60
2018-08-19T04:51:23.321Z,11.50
2018-08-19T04:53:51.678Z,11.40
2018-08-19T04:56:19.996Z,11.40
2018-08-19T04:58:48.324Z,11.40
2018-08-19T05:01:16.661Z,11.40
2018-08-19T05:03:45.850Z,11.40
2018-08-19T05:06:20.818Z,11.50
2018-08-19T05:08:49.161Z,11.60
2018-08-19T05:11:17.488Z,11.60
2018-08-19T05:13:45.889Z,11.70
2018-08-19T05:16:14.284Z,11.80
2018-08-19T05:18:49.674Z,11.80
2018-08-19T05:21:18.435Z,11.80
2018-08-19T05:23:47.205Z,11.90
2018-08-19T05:26:15.521Z,12.00
2018-08-19T05:29:08.145Z,12.20
2018-08-19T05:31:50.052Z,12.40
2018-08-19T05:34:23.820Z,12.60
2018-08-19T05:36:52.162Z,12.90
2018-08-19T05:39:20.502Z,13.40
2018-08-19T05:42:00.642Z,13.80
2018-08-19T05:44:32.118Z,14.00
2018-08-19T05:47:07.803Z,14.10
2018-08-19T05:49:38.041Z,14.10
2018-08-19T05:52:10.932Z,14.00
2018-08-19T05:54:44.646Z,14.00
2018-08-19T05:57:13.994Z,14.00
2018-08-19T05:59:42.329Z,13.80
2018-08-19T06:02:10.732Z,14.20
2018-08-19T06:04:39.074Z,14.40
2018-08-19T06:07:07.454Z,14.70
2018-08-19T06:09:36.125Z,14.80
2018-08-19T06:12:05.047Z,15.00
2018-08-19T06:14:33.609Z,15.00
2018-08-19T06:17:03.592Z,15.10
2018-08-19T06:19:33.533Z,15.20
2018-08-19T06:22:01.973Z,15.00
2018-08-19T06:24:30.328Z,15.00
2018-08-19T06:26:58.630Z,14.80
2018-08-19T06:29:43.346Z,14.90
2018-08-19T06:32:19.752Z,15.20
2018-08-19T06:34:48.179Z,15.40
2018-08-19T06:37:16.449Z,15.50
2018-08-19T06:39:45.775Z,15.50
2018-08-19T06:42:14.150Z,15.60
2018-08-19T06:44:42.509Z,15.80
2018-08-19T06:47:10.893Z,16.10
2018-08-19T06:49:44.641Z,16.20
2018-08-19T06:52:13.133Z,16.40
2018-08-19T06:54:41.374Z,16.60
2018-08-19T06:57:10.527Z,16.70
2018-08-19T06:59:38.974Z,16.80
2018-08-19T07:02:08.137Z,16.90
2018-08-19T07:04:40.551Z,17.00
2018-08-19T07:07:10.839Z,17.00
2018-08-19T07:09:39.598Z,17.20
2018-08-19T07:12:15.582Z,17.30
2018-08-19T07:14:44.602Z,17.30
2018-08-19T07:17:13.061Z,17.30
2018-08-19T07:19:41.440Z,17.40
2018-08-19T07:22:10.535Z,17.80
2018-08-19T07:24:39.907Z,17.80
2018-08-19T07:27:09.222Z,17.90
2018-08-19T07:29:37.594Z,17.90
2018-08-19T07:32:06.907Z,18.10
2018-08-19T07:34:35.245Z,18.30
2018-08-19T07:37:03.680Z,18.50
2018-08-19T07:39:42.165Z,18.40
2018-08-19T07:42:10.503Z,18.50
2018-08-19T07:44:38.920Z,18.70
2018-08-19T07:47:07.312Z,18.80
2018-08-19T07:49:35.734Z,19.00
2018-08-19T07:52:04.150Z,19.10
2018-08-19T07:54:32.477Z,19.40
2018-08-19T07:57:16.259Z,19.40
2018-08-19T07:59:46.918Z,19.60
2018-08-19T08:02:15.280Z,19.80
2018-08-19T08:04:44.596Z,20.00
2018-08-19T08:07:13.774Z,20.00
2018-08-19T08:09:42.675Z,20.10
2018-08-19T08:12:12.249Z,20.20
2018-08-19T08:14:44.850Z,20.50
2018-08-19T08:17:13.206Z,20.70
2018-08-19T08:19:47.121Z,20.80
2018-08-19T08:22:17.054Z,20.70
2018-08-19T08:24:45.457Z,20.80
2018-08-19T08:27:14.010Z,20.80
2018-08-19T08:29:42.475Z,21.10
2018-08-19T08:32:10.826Z,21.10
2018-08-19T08:34:39.165Z,21.10
2018-08-19T08:37:08.130Z,21.20
2018-08-19T08:39:37.454Z,21.50
2018-08-19T08:42:06.293Z,21.70
2018-08-19T08:44:34.736Z,21.80
2018-08-19T08:47:11.932Z,22.00
2018-08-19T08:49:45.639Z,22.20
2018-08-19T08:52:20.322Z,22.30
2018-08-19T08:54:53.970Z,22.40
2018-08-19T08:57:23.222Z,22.40
2018-08-19T08:59:52.126Z,22.50
2018-08-19T09:02:20.581Z,22.70
2018-08-19T09:04:49.953Z,22.70
2018-08-19T09:07:18.677Z,22.70
2018-08-19T09:09:47.687Z,22.90
2018-08-19T09:12:16.781Z,23.00
2018-08-19T09:14:45.478Z,23.20
2018-08-19T09:17:13.828Z,23.30
2018-08-19T09:19:43.272Z,23.40
2018-08-19T09:22:12.322Z,23.60
2018-08-19T09:24:41.232Z,23.70
2018-08-19T09:27:09.671Z,23.70
2018-08-19T09:29:38.001Z,23.80
2018-08-19T09:32:06.336Z,23.80
2018-08-19T09:34:34.690Z,24.00
2018-08-19T09:37:03.114Z,23.90
2018-08-19T09:39:31.745Z,23.90
2018-08-19T09:42:14.749Z,23.90
2018-08-19T09:44:43.929Z,24.20
2018-08-19T09:47:12.313Z,24.30
2018-08-19T09:49:40.690Z,24.30
2018-08-19T09:52:09.149Z,24.20
2018-08-19T09:54:38.382Z,24.30
2018-08-19T09:57:07.754Z,24.30
2018-08-19T09:59:36.258Z,24.50
2018-08-19T10:02:09.552Z,24.60
2018-08-19T10:04:37.913Z,24.70
2018-08-19T10:07:08.449Z,24.60
2018-08-19T10:09:36.794Z,24.90
2018-08-19T10:12:05.256Z,25.20
2018-08-19T10:14:33.635Z,25.20
2018-08-19T10:17:02.032Z,25.40
2018-08-19T10:19:30.366Z,25.50
2018-08-19T10:21:58.761Z,25.50
2018-08-19T10:24:28.430Z,25.40
2018-08-19T10:26:57.100Z,25.60
2018-08-19T10:29:25.570Z,25.70
2018-08-19T10:31:55.566Z,26.00
2018-08-19T10:34:25.206Z,26.10
2018-08-19T10:36:53.896Z,26.20
2018-08-19T10:39:22.491Z,26.30
2018-08-19T10:41:51.101Z,26.40
2018-08-19T10:44:19.424Z,26.50
2018-08-19T10:46:47.785Z,26.70
2018-08-19T10:49:16.114Z,27.00
2018-08-19T10:51:45.706Z,27.30
2018-08-19T10:54:14.793Z,27.40
2018-08-19T10:56:43.265Z,27.70
2018-08-19T10:59:17.252Z,28.10
2018-08-19T11:01:45.602Z,28.50
2018-08-19T11:04:13.905Z,29.00
2018-08-19T11:06:42.369Z,29.50
2018-08-19T11:09:10.674Z,29.80
2018-08-19T11:11:39.022Z,30.30
2018-08-19T11:14:10.205Z,30.50
2018-08-19T11:16:38.565Z,30.60
2018-08-19T11:19:06.918Z,31.20
2018-08-19T11:21:38.351Z,31.10
2018-08-19T11:24:17.677Z,32.10
2018-08-19T11:26:50.318Z,32.90
2018-08-19T11:29:18.634Z,33.10
2018-08-19T11:31:47.007Z,33.00
2018-08-19T11:34:15.308Z,33.30
2018-08-19T11:36:44.868Z,33.40
2018-08-19T11:39:16.410Z,33.30
2018-08-19T11:41:44.756Z,33.80
2018-08-19T11:44:16.241Z,33.90
2018-08-19T11:46:44.588Z,34.00
2018-08-19T11:49:15.145Z,34.30
2018-08-19T11:51:51.316Z,34.30
2018-08-19T11:54:20.493Z,34.70
2018-08-19T11:57:22.753Z,34.60
2018-08-19T11:59:51.134Z,34.90
2018-08-19T12:02:20.778Z,34.60
2018-08-19T12:04:49.120Z,34.20
2018-08-19T12:07:17.937Z,34.70
2018-08-19T12:09:52.790Z,34.90
2018-08-19T12:12:33.813Z,34.00
2018-08-19T12:15:02.149Z,34.20
2018-08-19T12:17:30.494Z,34.70
2018-08-19T12:19:58.819Z,35.00
2018-08-19T12:22:27.234Z,34.50
2018-08-19T12:24:55.540Z,34.10
2018-08-19T12:27:23.936Z,34.30
2018-08-19T12:30:00.508Z,34.80
2018-08-19T12:32:29.344Z,34.90
2018-08-19T12:34:59.877Z,34.30
2018-08-19T12:37:31.498Z,34.60
2018-08-19T12:40:01.065Z,33.60
2018-08-19T12:42:30.178Z,34.10
2018-08-19T12:45:06.585Z,34.10
2018-08-19T12:47:36.274Z,33.80
2018-08-19T12:50:09.488Z,33.90
2018-08-19T12:52:38.710Z,34.50
2018-08-19T12:55:15.028Z,34.40
2018-08-19T12:57:44.010Z,34.30
2018-08-19T13:00:25.296Z,34.50
2018-08-19T13:02:53.983Z,34.80
2018-08-19T13:05:22.704Z,34.90
2018-08-19T13:07:51.425Z,34.20
2018-08-19T13:10:20.081Z,33.80
2018-08-19T13:12:49.732Z,34.20
2018-08-19T13:15:18.101Z,33.90
2018-08-19T13:17:46.458Z,33.60
2018-08-19T13:20:14.790Z,33.70
2018-08-19T13:22:49.447Z,33.90
2018-08-19T13:25:22.250Z,33.60
2018-08-19T13:27:50.580Z,33.10
2018-08-19T13:30:19.805Z,33.10
2018-08-19T13:32:48.614Z,33.20
2018-08-19T13:35:16.986Z,33.20
2018-08-19T13:37:45.498Z,33.30
2018-08-19T13:40:14.509Z,33.00
2018-08-19T13:42:43.146Z,33.00
2018-08-19T13:45:14.294Z,32.90
2018-08-19T13:47:44.101Z,32.50
2018-08-19T13:50:12.769Z,32.50
2018-08-19T13:52:41.565Z,32.50
2018-08-19T13:55:12.533Z,32.30
2018-08-19T13:57:40.946Z,32.00
2018-08-19T14:00:11.997Z,31.90
2018-08-19T14:02:40.423Z,31.20
2018-08-19T14:05:08.854Z,30.80
2018-08-19T14:07:37.214Z,30.10
2018-08-19T14:10:06.718Z,29.80
2018-08-19T14:12:35.245Z,29.60
2018-08-19T14:15:03.673Z,29.30
2018-08-19T14:17:32.008Z,29.10
2018-08-19T14:20:00.343Z,28.80
2018-08-19T14:22:33.870Z,28.60
2018-08-19T14:25:02.198Z,28.70
2018-08-19T14:27:30.505Z,28.70
2018-08-19T14:29:58.893Z,28.50
2018-08-19T14:32:35.250Z,28.60
2018-08-19T14:35:04.970Z,28.60
2018-08-19T14:37:33.412Z,28.40
2018-08-19T14:40:02.342Z,28.30
2018-08-19T14:42:30.641Z,28.30
2018-08-19T14:44:59.774Z,28.20
2018-08-19T14:47:28.680Z,28.10
2018-08-19T14:49:58.070Z,28.10
2018-08-19T14:52:27.070Z,28.00
2018-08-19T14:54:55.400Z,28.00
2018-08-19T14:57:23.781Z,27.90
2018-08-19T14:59:52.357Z,27.80
2018-08-19T15:02:20.730Z,27.70
2018-08-19T15:04:49.069Z,27.70
2018-08-19T15:07:17.532Z,27.70
2018-08-19T15:09:47.468Z,27.60
2018-08-19T15:12:18.569Z,27.60
2018-08-19T15:14:48.011Z,27.80
2018-08-19T15:17:16.388Z,27.70
2018-08-19T15:19:46.882Z,27.40
2018-08-19T15:22:15.431Z,27.30
2018-08-19T15:24:43.814Z,27.20
2018-08-19T15:27:12.228Z,27.40
2018-08-19T15:29:41.904Z,27.40
2018-08-19T15:32:12.706Z,27.30
2018-08-19T15:34:40.941Z,27.30
2018-08-19T15:37:09.363Z,27.40
2018-08-19T15:39:37.819Z,27.40
2018-08-19T15:42:06.318Z,27.50
2018-08-19T15:44:34.650Z,27.50
2018-08-19T15:47:03.101Z,27.40
2018-08-19T15:49:31.420Z,27.30
2018-08-19T15:51:59.862Z,27.30
2018-08-19T15:54:28.910Z,27.30
2018-08-19T15:57:02.762Z,27.30
2018-08-19T15:59:35.565Z,27.30
2018-08-19T16:02:04.245Z,27.30
2018-08-19T16:04:32.658Z,27.20
2018-08-19T16:07:01.273Z,27.30
2018-08-19T16:09:30.201Z,27.20
2018-08-19T16:11:58.558Z,27.20
2018-08-19T16:14:28.090Z,27.00
2018-08-19T16:16:57.361Z,27.00
2018-08-19T16:19:25.784Z,27.00
2018-08-19T16:21:55.427Z,27.00
2018-08-19T16:24:24.059Z,26.90
2018-08-19T16:26:52.402Z,26.90
2018-08-19T16:29:20.761Z,26.90
2018-08-19T16:31:49.159Z,26.80
2018-08-19T16:34:17.530Z,26.90
2018-08-19T16:36:47.569Z,26.70
2018-08-19T16:39:17.165Z,26.70
2018-08-19T16:41:45.453Z,26.70
2018-08-19T16:44:13.790Z,26.70
2018-08-19T16:46:42.412Z,26.60
2018-08-19T16:49:10.746Z,26.50
2018-08-19T16:51:39.169Z,26.40
2018-08-19T16:54:07.798Z,26.20
2018-08-19T16:56:36.125Z,26.20
2018-08-19T16:59:04.561Z,26.10
2018-08-19T17:01:32.898Z,26.10
2018-08-19T17:04:01.245Z,26.00
2018-08-19T17:06:29.653Z,26.10
2018-08-19T17:08:57.997Z,26.10
2018-08-19T17:11:26.318Z,26.00
2018-08-19T17:13:55.646Z,26.00
2018-08-19T17:16:24.066Z,25.90
2018-08-19T17:18:52.388Z,25.80
2018-08-19T17:21:20.722Z,25.80
2018-08-19T17:23:49.817Z,25.80
2018-08-19T17:26:21.541Z,25.70
2018-08-19T17:28:50.895Z,25.70
2018-08-19T17:31:19.504Z,25.70
2018-08-19T17:33:47.854Z,25.50
2018-08-19T17:36:22.197Z,25.40
2018-08-19T17:38:50.646Z,25.40
2018-08-19T17:41:20.034Z,25.40
2018-08-19T17:43:48.366Z,25.40
2018-08-19T17:46:19.010Z,25.30
2018-08-19T17:48:47.369Z,25.20
2018-08-19T17:51:31.220Z,25.10
2018-08-19T17:53:59.600Z,25.00
2018-08-19T17:56:27.948Z,24.90
2018-08-19T17:58:56.321Z,24.80
2018-08-19T18:01:24.746Z,24.70
2018-08-19T18:03:53.092Z,24.70
2018-08-19T18:06:21.440Z,24.60
2018-08-19T18:08:50.949Z,24.40
2018-08-19T18:11:19.970Z,24.20
2018-08-19T18:13:48.746Z,24.00
2018-08-19T18:16:17.126Z,24.00
2018-08-19T18:18:46.270Z,23.80
2018-08-19T18:21:26.141Z,23.70
2018-08-19T18:23:54.453Z,23.60
2018-08-19T18:26:22.794Z,23.50
2018-08-19T18:28:51.133Z,23.40
2018-08-19T18:31:22.761Z,23.30
2018-08-19T18:33:57.809Z,23.30
2018-08-19T18:36:27.405Z,23.30
2018-08-19T18:38:56.077Z,23.20
2018-08-19T18:41:29.830Z,23.10
2018-08-19T18:43:59.484Z,23.10
2018-08-19T18:46:28.170Z,23.00
2018-08-19T18:49:14.112Z,22.90
2018-08-19T18:51:46.924Z,22.80
2018-08-19T18:54:21.897Z,22.60
2018-08-19T18:56:50.257Z,22.50
2018-08-19T18:59:18.577Z,22.30
2018-08-19T19:01:46.953Z,22.30
2018-08-19T19:04:15.266Z,22.20
2018-08-19T19:06:43.686Z,22.10
2018-08-19T19:09:12.006Z,21.90
2018-08-19T19:11:40.324Z,21.80
2018-08-19T19:14:16.003Z,21.70
2018-08-19T19:16:46.502Z,21.50
2018-08-19T19:19:14.813Z,21.30
2018-08-19T19:21:44.412Z,21.20
2018-08-19T19:24:12.722Z,21.10
2018-08-19T19:26:41.069Z,21.00
2018-08-19T19:29:14.993Z,20.90
2018-08-19T19:31:43.315Z,20.80
2018-08-19T19:34:15.003Z,20.60
2018-08-19T19:36:43.290Z,20.50
2018-08-19T19:39:11.653Z,20.40
2018-08-19T19:41:39.982Z,20.30
2018-08-19T19:44:23.222Z,20.20
2018-08-19T19:46:52.423Z,20.10
2018-08-19T19:49:21.144Z,19.90
2018-08-19T19:51:54.789Z,19.90
2018-08-19T19:54:23.109Z,19.70
2018-08-19T19:56:51.427Z,19.70
2018-08-19T19:59:23.253Z,19.50
2018-08-19T20:01:51.589Z,19.40
2018-08-19T20:04:19.904Z,19.40
2018-08-19T20:06:48.214Z,19.30
2018-08-19T20:09:16.527Z,19.20
2018-08-19T20:11:44.843Z,19.20
2018-08-19T20:14:13.161Z,19.10
2018-08-19T20:16:41.484Z,19.00
2018-08-19T20:19:09.804Z,19.00
2018-08-19T20:21:38.118Z,19.00
2018-08-19T20:24:06.618Z,18.90
2018-08-19T20:26:35.006Z,18.90
2018-08-19T20:29:03.824Z,18.90
2018-08-19T20:31:32.223Z,18.90
2018-08-19T20:34:00.620Z,18.70
2018-08-19T20:36:29.996Z,18.60
2018-08-19T20:38:59.197Z,18.40
2018-08-19T20:41:28.227Z,18.30
2018-08-19T20:43:56.599Z,18.40
2018-08-19T20:46:25.109Z,18.40
2018-08-19T20:48:53.790Z,18.50
2018-08-19T20:51:23.569Z,18.40
2018-08-19T20:53:52.117Z,18.30
2018-08-19T20:56:20.515Z,18.30
2018-08-19T20:58:49.812Z,18.30
2018-08-19T21:01:24.632Z,18.30
2018-08-19T21:03:53.269Z,18.30
2018-08-19T21:06:21.703Z,18.20
2018-08-19T21:08:50.938Z,18.10
2018-08-19T21:11:19.272Z,18.10
2018-08-19T21:13:47.649Z,17.90
2018-08-19T21:16:15.982Z,17.90
2018-08-19T21:18:44.329Z,17.70
2018-08-19T21:21:12.670Z,17.70
2018-08-19T21:23:40.997Z,17.60
2018-08-19T21:26:09.353Z,17.50
2018-08-19T21:28:37.706Z,17.50
2018-08-19T21:31:06.052Z,17.40
2018-08-19T21:33:34.390Z,17.30
2018-08-19T21:36:02.730Z,17.40
2018-08-19T21:38:31.113Z,17.40
2018-08-19T21:40:59.438Z,17.40
2018-08-19T21:43:30.353Z,17.40
2018-08-19T21:45:59.601Z,17.40
2018-08-19T21:48:28.017Z,17.30
2018-08-19T21:50:56.409Z,17.10
2018-08-19T21:53:25.070Z,17.00
2018-08-19T21:55:53.598Z,16.90
2018-08-19T21:58:21.943Z,16.90
2018-08-19T22:01:00.760Z,17.00
2018-08-19T22:03:34.641Z,17.00
2018-08-19T22:06:05.781Z,17.00
2018-08-19T22:08:34.122Z,17.10
2018-08-19T22:11:02.497Z,17.10
2018-08-19T22:13:30.882Z,16.90
2018-08-19T22:15:59.295Z,16.70
2018-08-19T22:18:29.553Z,16.60
2018-08-19T22:21:06.766Z,16.60
2018-08-19T22:23:39.410Z,16.50
2018-08-19T22:26:08.225Z,16.60
2018-08-19T22:28:36.600Z,16.60
2018-08-19T22:31:17.382Z,16.60
2018-08-19T22:33:47.923Z,16.50
2018-08-19T22:36:16.689Z,16.40
2018-08-19T22:38:45.090Z,16.40
2018-08-19T22:41:13.422Z,16.30
2018-08-19T22:43:41.886Z,16.30
2018-08-19T22:46:10.250Z,16.30
2018-08-19T22:48:43.567Z,16.20
2018-08-19T22:51:12.912Z,16.20
2018-08-19T22:53:41.349Z,16.10
2018-08-19T22:56:09.721Z,16.00
2018-08-19T22:58:38.248Z,15.90
2018-08-19T23:01:07.070Z,15.90
2018-08-19T23:03:35.468Z,15.90
2018-08-19T23:06:03.861Z,15.90
2018-08-19T23:08:33.385Z,16.10
2018-08-19T23:11:03.357Z,15.90
2018-08-19T23:13:42.939Z,15.80
2018-08-19T23:16:12.355Z,15.90
2018-08-19T23:18:41.617Z,15.90
2018-08-19T23:21:10.330Z,15.90
2018-08-19T23:23:38.738Z,15.70
2018-08-19T23:26:07.309Z,15.60
2018-08-19T23:28:35.657Z,15.60
2018-08-19T23:31:04.056Z,15.80
2018-08-19T23:33:32.625Z,15.90
2018-08-19T23:36:00.976Z,16.00
2018-08-19T23:38:29.325Z,16.10
2018-08-19T23:40:57.708Z,16.10
2018-08-19T23:43:26.050Z,16.00
2018-08-19T23:45:54.393Z,15.80
2018-08-19T23:48:22.788Z,15.80
2018-08-19T23:50:51.118Z,15.80
2018-08-19T23:53:19.456Z,15.80
2018-08-19T23:55:47.822Z,15.70
2018-08-19T23:58:16.154Z,15.50
